createdAt,value
2023-02-03T00:00:57.206Z,8.60
2023-02-03T00:03:30.888Z,10.40
2023-02-03T00:06:06.079Z,9.03
2023-02-03T00:08:40.438Z,9.13
2023-02-03T00:11:14.224Z,8.63
2023-02-03T00:13:49.072Z,9.00
2023-02-03T00:16:22.613Z,8.83
2023-02-03T00:18:55.888Z,8.53
2023-02-03T00:21:29.538Z,9.67
2023-02-03T00:24:03.275Z,8.97
2023-02-03T00:26:42.063Z,8.37
2023-02-03T00:29:18.918Z,8.43
2023-02-03T00:31:53.827Z,8.07
2023-02-03T00:34:31.742Z,9.27
2023-02-03T00:37:05.548Z,8.33
2023-02-03T00:39:40.746Z,8.40
2023-02-03T00:42:14.925Z,8.57
2023-02-03T00:44:50.015Z,8.20
2023-02-03T00:47:24.103Z,8.93
2023-02-03T00:49:58.434Z,7.60
2023-02-03T00:52:32.284Z,8.23
2023-02-03T00:55:07.395Z,7.73
2023-02-03T00:57:41.122Z,8.03
2023-02-03T01:00:18.223Z,8.57
2023-02-03T01:02:52.008Z,8.53
2023-02-03T01:05:25.929Z,7.83
2023-02-03T01:07:59.346Z,8.33
2023-02-03T01:10:32.996Z,8.03
2023-02-03T01:13:06.490Z,7.97
2023-02-03T01:15:48.293Z,7.97
2023-02-03T01:18:22.207Z,8.17
2023-02-03T01:20:55.797Z,9.60
2023-02-03T01:23:30.007Z,8.80
2023-02-03T01:26:08.260Z,7.83
2023-02-03T01:28:42.691Z,7.77
2023-02-03T01:31:22.392Z,7.73
2023-02-03T01:33:57.349Z,7.97
2023-02-03T01:36:33.908Z,8.13
2023-02-03T01:39:07.972Z,8.57
2023-02-03T01:41:43.214Z,8.73
2023-02-03T01:44:45.692Z,9.00
2023-02-03T01:47:29.705Z,8.43
2023-02-03T01:50:12.718Z,8.23
2023-02-03T01:52:51.581Z,8.83
2023-02-03T01:55:33.848Z,8.67
2023-02-03T01:58:14.305Z,7.87
2023-02-03T02:00:49.239Z,7.83
2023-02-03T02:03:32.482Z,8.80
2023-02-03T02:06:09.763Z,8.90
2023-02-03T02:08:48.153Z,7.83
2023-02-03T02:11:23.308Z,8.13
2023-02-03T02:14:03.091Z,8.23
2023-02-03T02:16:48.487Z,7.60
2023-02-03T02:20:00.243Z,8.33
2023-02-03T02:22:53.289Z,7.13
2023-02-03T02:25:58.294Z,6.97
2023-02-03T02:29:13.803Z,7.53
2023-02-03T02:32:32.188Z,7.87
2023-02-03T02:35:16.619Z,7.43
2023-02-03T02:37:59.729Z,7.37
2023-02-03T02:40:43.663Z,7.17
2023-02-03T02:43:27.654Z,7.40
2023-02-03T02:46:08.170Z,6.77
2023-02-03T02:48:50.825Z,7.17
2023-02-03T02:51:25.925Z,6.27
2023-02-03T02:54:05.200Z,6.90
2023-02-03T02:56:41.606Z,6.40
2023-02-03T02:59:16.850Z,6.93
2023-02-03T03:01:51.481Z,6.47
2023-02-03T03:04:31.379Z,6.33
2023-02-03T03:07:11.197Z,6.80
2023-02-03T03:09:49.968Z,6.63
2023-02-03T03:12:28.520Z,5.90
2023-02-03T03:15:07.043Z,5.83
2023-02-03T03:17:47.553Z,5.57
2023-02-03T03:20:27.783Z,5.80
2023-02-03T03:23:09.005Z,5.40
2023-02-03T03:25:48.722Z,5.07
2023-02-03T03:28:31.946Z,4.73
2023-02-03T03:31:07.170Z,5.50
2023-02-03T03:33:41.343Z,4.87
2023-02-03T03:36:27.331Z,4.23
2023-02-03T03:39:08.703Z,4.63
2023-02-03T03:41:57.351Z,4.50
2023-02-03T03:44:39.284Z,4.77
2023-02-03T03:47:29.140Z,3.93
2023-02-03T03:50:08.384Z,4.63
2023-02-03T03:52:46.697Z,4.23
2023-02-03T03:55:22.569Z,4.40
2023-02-03T03:58:03.019Z,4.40
2023-02-03T04:00:40.124Z,4.27
2023-02-03T04:03:19.705Z,4.50
2023-02-03T04:05:53.761Z,4.13
2023-02-03T04:08:28.975Z,4.20
2023-02-03T04:11:02.717Z,3.60
2023-02-03T04:13:36.106Z,3.97
2023-02-03T04:16:10.455Z,3.60
2023-02-03T04:18:44.302Z,4.07
2023-02-03T04:21:17.823Z,3.60
2023-02-03T04:23:53.094Z,3.90
2023-02-03T04:26:27.135Z,3.77
2023-02-03T04:29:00.657Z,3.83
2023-02-03T04:31:34.616Z,3.53
2023-02-03T04:34:08.536Z,3.37
2023-02-03T04:36:42.383Z,3.60
2023-02-03T04:39:17.884Z,3.70
2023-02-03T04:41:52.647Z,4.00
2023-02-03T04:44:26.202Z,3.97
2023-02-03T04:46:59.750Z,3.80
2023-02-03T04:49:33.652Z,3.97
2023-02-03T04:52:07.984Z,3.40
2023-02-03T04:54:43.235Z,3.67
2023-02-03T04:57:16.494Z,3.63
2023-02-03T04:59:50.111Z,3.63
2023-02-03T05:02:23.795Z,3.73
2023-02-03T05:04:57.600Z,3.83
2023-02-03T05:07:31.222Z,3.43
2023-02-03T05:10:07.567Z,4.10
2023-02-03T05:12:41.005Z,3.97
2023-02-03T05:15:14.757Z,3.43
2023-02-03T05:17:48.072Z,4.10
2023-02-03T05:20:21.992Z,3.83
2023-02-03T05:22:59.507Z,3.33
2023-02-03T05:25:34.662Z,3.80
2023-02-03T05:28:08.426Z,3.37
2023-02-03T05:30:42.749Z,3.40
2023-02-03T05:33:16.505Z,3.33
2023-02-03T05:35:50.391Z,2.97
2023-02-03T05:38:26.080Z,3.00
2023-02-03T05:41:18.563Z,3.07
2023-02-03T05:43:51.945Z,3.00
2023-02-03T05:46:26.820Z,2.90
2023-02-03T05:49:00.168Z,3.03
2023-02-03T05:51:34.144Z,3.23
2023-02-03T05:54:08.289Z,3.40
2023-02-03T05:56:43.857Z,3.33
2023-02-03T05:59:17.252Z,2.80
2023-02-03T06:01:51.037Z,2.57
2023-02-03T06:04:24.854Z,2.90
2023-02-03T06:06:58.218Z,3.30
2023-02-03T06:09:31.533Z,2.90
2023-02-03T06:12:08.223Z,2.90
2023-02-03T06:14:41.554Z,2.70
2023-02-03T06:17:16.322Z,2.47
2023-02-03T06:19:50.140Z,2.43
2023-02-03T06:22:23.832Z,2.70
2023-02-03T06:24:57.633Z,2.70
2023-02-03T06:27:35.082Z,2.37
2023-02-03T06:30:11.698Z,2.90
2023-02-03T06:32:45.199Z,2.73
2023-02-03T06:35:19.534Z,2.60
2023-02-03T06:37:53.477Z,2.53
2023-02-03T06:40:27.588Z,3.10
2023-02-03T06:43:03.207Z,2.40
2023-02-03T06:45:36.915Z,2.57
2023-02-03T06:48:13.799Z,2.30
2023-02-03T06:50:48.751Z,2.50
2023-02-03T06:53:22.233Z,2.73
2023-02-03T06:55:56.085Z,2.33
2023-02-03T06:58:31.302Z,2.60
2023-02-03T07:01:05.409Z,2.30
2023-02-03T07:03:39.340Z,2.17
2023-02-03T07:06:12.963Z,2.30
2023-02-03T07:08:46.789Z,2.50
2023-02-03T07:11:20.689Z,2.80
2023-02-03T07:13:55.640Z,2.20
2023-02-03T07:16:29.627Z,2.23
2023-02-03T07:19:03.244Z,2.33
2023-02-03T07:21:38.443Z,2.50
2023-02-03T07:24:12.209Z,3.67
2023-02-03T07:26:47.357Z,2.93
2023-02-03T07:29:22.829Z,3.20
2023-02-03T07:31:56.807Z,2.90
2023-02-03T07:34:30.474Z,3.07
2023-02-03T07:37:04.037Z,2.80
2023-02-03T07:39:37.370Z,2.60
2023-02-03T07:42:11.289Z,2.90
2023-02-03T07:44:46.375Z,3.00
2023-02-03T07:47:20.084Z,2.67
2023-02-03T07:49:53.497Z,2.57
2023-02-03T07:52:27.601Z,2.47
2023-02-03T07:55:01.371Z,2.67
2023-02-03T07:57:34.930Z,2.27
2023-02-03T08:00:14.316Z,2.83
2023-02-03T08:02:48.119Z,2.80
2023-02-03T08:05:22.257Z,2.90
2023-02-03T08:07:56.152Z,2.60
2023-02-03T08:10:30.003Z,2.80
2023-02-03T08:13:04.175Z,2.50
2023-02-03T08:15:43.651Z,2.50
2023-02-03T08:18:17.338Z,2.83
2023-02-03T08:20:50.815Z,2.53
2023-02-03T08:23:24.646Z,3.00
2023-02-03T08:25:58.373Z,2.93
2023-02-03T08:28:32.000Z,2.60
2023-02-03T08:31:13.939Z,2.53
2023-02-03T08:33:48.074Z,3.00
2023-02-03T08:36:21.744Z,2.83
2023-02-03T08:38:57.079Z,2.47
2023-02-03T08:41:30.699Z,3.13
2023-02-03T08:44:04.568Z,2.67
2023-02-03T08:46:44.131Z,2.50
2023-02-03T08:49:17.870Z,2.80
2023-02-03T08:51:52.807Z,2.33
2023-02-03T08:54:27.869Z,2.60
2023-02-03T08:57:01.790Z,2.47
2023-02-03T08:59:36.539Z,2.43
2023-02-03T09:02:18.252Z,2.13
2023-02-03T09:04:52.116Z,2.80
2023-02-03T09:07:25.937Z,2.00
2023-02-03T09:10:00.059Z,2.23
2023-02-03T09:12:33.871Z,2.57
2023-02-03T09:15:08.381Z,2.50
2023-02-03T09:17:43.447Z,2.47
2023-02-03T09:20:17.397Z,2.43
2023-02-03T09:22:51.303Z,2.47
2023-02-03T09:25:25.751Z,2.27
2023-02-03T09:27:59.736Z,2.63
2023-02-03T09:30:33.245Z,2.20
2023-02-03T09:33:08.401Z,2.40
2023-02-03T09:35:41.851Z,2.50
2023-02-03T09:38:15.803Z,2.50
2023-02-03T09:41:09.414Z,2.33
2023-02-03T09:43:53.022Z,2.17
2023-02-03T09:46:31.952Z,2.40
2023-02-03T09:49:16.799Z,2.57
2023-02-03T09:51:55.529Z,2.33
2023-02-03T09:54:42.751Z,3.10
2023-02-03T09:57:23.265Z,2.57
2023-02-03T10:00:01.352Z,2.40
2023-02-03T10:02:55.545Z,2.50
2023-02-03T10:06:01.016Z,2.53
2023-02-03T10:09:07.157Z,2.30
2023-02-03T10:12:08.065Z,2.33
2023-02-03T10:15:01.816Z,2.40
2023-02-03T10:17:42.564Z,2.67
2023-02-03T10:20:23.351Z,2.70
2023-02-03T10:23:04.695Z,2.93
2023-02-03T10:25:44.968Z,2.70
2023-02-03T10:28:22.335Z,2.53
2023-02-03T10:30:59.075Z,2.67
2023-02-03T10:33:35.699Z,2.57
2023-02-03T10:36:21.991Z,2.50
2023-02-03T10:39:04.912Z,2.90
2023-02-03T10:41:38.869Z,2.80
2023-02-03T10:44:16.479Z,2.30
2023-02-03T10:46:50.874Z,2.77
2023-02-03T10:49:28.828Z,2.70
2023-02-03T10:52:04.941Z,2.63
2023-02-03T10:54:39.763Z,2.97
2023-02-03T10:57:17.507Z,3.00
2023-02-03T10:59:51.469Z,2.90
2023-02-03T11:02:29.760Z,3.63
2023-02-03T11:05:25.158Z,3.60
2023-02-03T11:07:59.347Z,3.03
2023-02-03T11:10:38.074Z,3.50
2023-02-03T11:13:21.240Z,3.27
2023-02-03T11:16:02.370Z,4.10
2023-02-03T11:18:49.191Z,4.27
2023-02-03T11:21:26.163Z,4.83
2023-02-03T11:24:07.762Z,4.00
2023-02-03T11:26:47.657Z,3.90
2023-02-03T11:29:28.362Z,4.10
2023-02-03T11:32:07.827Z,4.00
2023-02-03T11:34:47.610Z,4.67
2023-02-03T11:37:35.279Z,3.93
2023-02-03T11:40:30.762Z,4.33
2023-02-03T11:43:17.396Z,4.07
2023-02-03T11:45:55.795Z,3.97
2023-02-03T11:48:37.005Z,3.70
2023-02-03T11:51:27.047Z,3.80
2023-02-03T11:54:20.841Z,4.20
2023-02-03T11:57:18.197Z,3.73
2023-02-03T12:00:13.788Z,3.00
2023-02-03T12:03:19.944Z,3.13
2023-02-03T12:06:14.450Z,3.33
2023-02-03T12:09:11.923Z,2.93
2023-02-03T12:12:15.730Z,3.30
2023-02-03T12:15:06.196Z,3.47
2023-02-03T12:18:02.032Z,3.37
2023-02-03T12:20:56.239Z,3.37
2023-02-03T12:23:50.879Z,3.33
2023-02-03T12:26:29.923Z,3.20
2023-02-03T12:29:15.797Z,3.00
2023-02-03T12:32:02.247Z,3.27
2023-02-03T12:34:41.656Z,3.07
2023-02-03T12:37:23.084Z,2.90
2023-02-03T12:40:04.394Z,2.57
2023-02-03T12:42:45.446Z,2.83
2023-02-03T12:45:25.155Z,2.97
2023-02-03T12:48:06.734Z,3.30
2023-02-03T12:50:45.319Z,2.60
2023-02-03T12:53:28.291Z,2.23
2023-02-03T12:56:11.013Z,2.33
2023-02-03T12:58:53.259Z,2.70
2023-02-03T13:01:35.038Z,2.60
2023-02-03T13:04:26.557Z,2.67
2023-02-03T13:07:12.085Z,2.30
2023-02-03T13:09:58.414Z,3.00
2023-02-03T13:12:38.551Z,2.30
2023-02-03T13:15:27.065Z,2.30
2023-02-03T13:18:09.768Z,2.30
2023-02-03T13:20:45.148Z,2.20
2023-02-03T13:23:18.846Z,2.00
2023-02-03T13:26:41.571Z,2.67
2023-02-03T13:29:54.441Z,2.30
2023-02-03T13:33:07.327Z,2.03
2023-02-03T13:36:04.884Z,2.13
2023-02-03T13:39:14.272Z,2.80
2023-02-03T13:41:56.709Z,2.13
2023-02-03T13:44:31.576Z,2.17
2023-02-03T13:47:06.311Z,2.00
2023-02-03T13:49:41.753Z,2.23
2023-02-03T13:52:31.950Z,1.80
2023-02-03T13:55:07.631Z,2.00
2023-02-03T13:57:41.762Z,1.80
2023-02-03T14:01:17.995Z,1.80
2023-02-03T14:03:51.859Z,2.07
2023-02-03T14:07:02.182Z,1.77
2023-02-03T14:09:48.906Z,1.87
2023-02-03T14:12:39.016Z,2.43
2023-02-03T14:15:40.316Z,2.30
2023-02-03T14:18:34.922Z,2.40
2023-02-03T14:21:20.272Z,2.40
2023-02-03T14:24:11.620Z,2.17
2023-02-03T14:26:50.892Z,2.00
2023-02-03T14:29:32.494Z,1.97
2023-02-03T14:32:09.665Z,2.27
2023-02-03T14:34:46.589Z,2.43
2023-02-03T14:37:25.538Z,2.17
2023-02-03T14:40:33.606Z,2.50
2023-02-03T14:43:36.626Z,2.63
2023-02-03T14:46:38.360Z,2.10
2023-02-03T14:49:39.519Z,2.63
2023-02-03T14:52:38.068Z,2.70
2023-02-03T14:55:31.968Z,2.27
2023-02-03T14:58:17.981Z,2.60
2023-02-03T15:00:55.232Z,2.40
2023-02-03T15:03:31.602Z,2.67
2023-02-03T15:06:07.193Z,2.50
2023-02-03T15:08:45.500Z,2.57
2023-02-03T15:11:32.912Z,2.87
2023-02-03T15:14:21.931Z,2.87
2023-02-03T15:17:00.969Z,2.40
2023-02-03T15:19:37.311Z,2.80
2023-02-03T15:22:25.496Z,3.67
2023-02-03T15:25:03.313Z,2.77
2023-02-03T15:27:36.997Z,3.03
2023-02-03T15:30:18.190Z,3.23
2023-02-03T15:33:06.771Z,4.17
2023-02-03T15:35:43.399Z,3.77
2023-02-03T15:38:24.223Z,2.60
2023-02-03T15:40:59.838Z,2.67
2023-02-03T15:43:39.108Z,2.87
2023-02-03T15:46:22.624Z,4.23
2023-02-03T15:49:06.828Z,3.60
2023-02-03T15:51:46.355Z,3.43
2023-02-03T15:54:30.850Z,3.30
2023-02-03T15:57:11.036Z,3.30
2023-02-03T15:59:50.348Z,2.83
2023-02-03T16:02:31.047Z,3.40
2023-02-03T16:05:21.666Z,3.17
2023-02-03T16:07:55.325Z,3.77
2023-02-03T16:10:33.113Z,3.23
2023-02-03T16:13:22.079Z,4.53
2023-02-03T16:16:03.292Z,4.10
2023-02-03T16:18:38.673Z,3.83
2023-02-03T16:21:31.653Z,3.13
2023-02-03T16:24:10.212Z,3.20
2023-02-03T16:26:45.340Z,2.80
2023-02-03T16:29:36.267Z,3.27
2023-02-03T16:32:38.129Z,2.60
2023-02-03T16:35:29.980Z,3.30
2023-02-03T16:38:33.218Z,3.50
2023-02-03T16:41:37.290Z,3.13
2023-02-03T16:44:35.445Z,3.47
2023-02-03T16:47:43.522Z,2.93
2023-02-03T16:50:40.091Z,5.87
2023-02-03T16:53:20.488Z,3.83
2023-02-03T16:55:56.877Z,4.13
2023-02-03T16:58:31.158Z,3.07
2023-02-03T17:01:06.783Z,3.40
2023-02-03T17:03:40.597Z,3.20
2023-02-03T17:06:15.051Z,3.67
2023-02-03T17:08:50.194Z,3.63
2023-02-03T17:11:25.069Z,3.20
2023-02-03T17:13:58.958Z,3.20
2023-02-03T17:16:33.463Z,2.90
2023-02-03T17:19:13.370Z,2.90
2023-02-03T17:21:49.371Z,3.40
2023-02-03T17:24:26.625Z,3.17
2023-02-03T17:27:02.060Z,3.07
2023-02-03T17:29:38.779Z,3.07
2023-02-03T17:32:15.428Z,4.67
2023-02-03T17:34:51.242Z,3.57
2023-02-03T17:37:25.697Z,4.00
2023-02-03T17:54:20.877Z,3.40
2023-02-03T17:56:56.398Z,3.60
2023-02-03T17:59:30.524Z,3.80
2023-02-03T18:02:04.399Z,3.63
2023-02-03T18:04:38.284Z,4.03
2023-02-03T18:07:11.925Z,3.47
2023-02-03T18:09:45.487Z,3.53
2023-02-03T18:12:20.568Z,3.93
2023-02-03T18:14:54.258Z,3.63
2023-02-03T18:17:27.927Z,3.30
2023-02-03T18:20:02.520Z,3.97
2023-02-03T18:22:36.068Z,4.27
2023-02-03T18:25:10.301Z,3.40
2023-02-03T18:27:45.916Z,4.10
2023-02-03T18:30:24.967Z,3.70
2023-02-03T18:33:01.957Z,4.53
2023-02-03T18:35:35.961Z,4.53
2023-02-03T18:38:10.115Z,3.93
2023-02-03T18:40:44.087Z,3.97
2023-02-03T18:43:19.149Z,3.60
2023-02-03T18:45:53.008Z,3.30
2023-02-03T18:48:26.603Z,3.97
2023-02-03T18:51:00.424Z,3.20
2023-02-03T18:53:34.428Z,3.10
2023-02-03T18:56:10.121Z,3.30
2023-02-03T18:58:45.667Z,3.90
2023-02-03T19:01:25.332Z,3.37
2023-02-03T19:04:03.170Z,3.30
2023-02-03T19:06:37.515Z,3.60
2023-02-03T19:09:11.285Z,3.40
2023-02-03T19:11:45.140Z,3.33
2023-02-03T19:14:20.787Z,3.07
2023-02-03T19:16:54.347Z,3.90
2023-02-03T19:19:28.089Z,3.40
2023-02-03T19:22:02.116Z,3.30
2023-02-03T19:24:35.731Z,3.50
2023-02-03T19:27:09.100Z,3.60
2023-02-03T19:29:44.467Z,3.40
2023-02-03T19:32:18.460Z,3.17
2023-02-03T19:34:52.186Z,3.20
2023-02-03T19:37:25.861Z,3.43
2023-02-03T19:39:59.752Z,3.47
2023-02-03T19:42:33.327Z,3.57
2023-02-03T19:45:10.084Z,3.63
2023-02-03T19:47:43.942Z,3.73
2023-02-03T19:50:18.870Z,3.30
2023-02-03T19:52:52.215Z,3.40
2023-02-03T19:55:30.716Z,3.33
2023-02-03T19:58:04.368Z,3.50
2023-02-03T20:00:41.267Z,3.03
2023-02-03T20:03:14.977Z,3.67
2023-02-03T20:05:48.534Z,3.10
2023-02-03T20:08:22.191Z,3.33
2023-02-03T20:10:55.864Z,3.53
2023-02-03T20:13:29.791Z,3.07
2023-02-03T20:16:05.638Z,3.10
2023-02-03T20:18:39.887Z,3.30
2023-02-03T20:21:14.670Z,3.10
2023-02-03T20:23:49.050Z,3.57
2023-02-03T20:26:24.037Z,3.57
2023-02-03T20:28:57.892Z,3.37
2023-02-03T20:31:33.782Z,3.30
2023-02-03T20:34:07.666Z,3.70
2023-02-03T20:36:41.313Z,3.90
2023-02-03T20:39:20.532Z,3.00
2023-02-03T20:41:54.836Z,3.37
2023-02-03T20:44:28.368Z,3.23
2023-02-03T20:47:03.536Z,3.67
2023-02-03T20:49:36.890Z,3.67
2023-02-03T20:52:15.487Z,3.30
2023-02-03T20:54:50.501Z,3.70
2023-02-03T20:57:24.365Z,3.20
2023-02-03T20:59:58.668Z,3.50
2023-02-03T21:02:57.423Z,3.70
2023-02-03T21:05:35.791Z,4.67
2023-02-03T21:08:15.330Z,8.03
2023-02-03T21:10:51.085Z,5.90
2023-02-03T21:13:27.637Z,3.63
2023-02-03T21:16:03.966Z,3.40
2023-02-03T21:18:44.247Z,3.93
2023-02-03T21:21:25.120Z,3.50
2023-02-03T21:23:59.272Z,4.13
2023-02-03T21:26:35.739Z,3.30
2023-02-03T21:29:24.681Z,3.27
2023-02-03T21:31:58.337Z,3.00
2023-02-03T21:34:35.957Z,2.93
2023-02-03T21:37:40.972Z,3.57
2023-02-03T21:40:27.841Z,3.63
2023-02-03T21:43:03.620Z,3.70
2023-02-03T21:45:42.060Z,3.60
2023-02-03T21:48:39.938Z,3.33
2023-02-03T21:51:20.520Z,3.63
2023-02-03T21:53:57.128Z,3.03
2023-02-03T21:56:40.374Z,3.80
2023-02-03T21:59:21.205Z,3.17
2023-02-03T22:01:54.589Z,3.63
2023-02-03T22:04:32.148Z,2.97
2023-02-03T22:07:16.256Z,3.63
2023-02-03T22:09:51.518Z,3.90
2023-02-03T22:12:26.925Z,3.90
2023-02-03T22:15:00.693Z,4.07
2023-02-03T22:17:34.545Z,4.00
2023-02-03T22:20:09.149Z,4.60
2023-02-03T22:22:44.442Z,4.43
2023-02-03T22:25:18.257Z,4.07
2023-02-03T22:27:53.059Z,4.80
2023-02-03T22:30:26.895Z,6.27
2023-02-03T22:33:02.519Z,5.47
2023-02-03T22:35:36.469Z,5.77
2023-02-03T22:38:11.298Z,6.37
2023-02-03T22:40:45.211Z,6.20
2023-02-03T22:43:18.703Z,4.80
2023-02-03T22:45:52.658Z,5.73
2023-02-03T22:48:26.531Z,5.23
2023-02-03T22:51:00.916Z,4.87
2023-02-03T22:53:35.784Z,5.97
2023-02-03T22:56:09.259Z,5.73
2023-02-03T22:58:43.377Z,5.30
2023-02-03T23:01:23.006Z,6.17
2023-02-03T23:03:56.453Z,5.23
2023-02-03T23:06:30.418Z,5.90
2023-02-03T23:09:05.455Z,6.53
2023-02-03T23:11:39.172Z,7.07
2023-02-03T23:14:13.815Z,5.90
2023-02-03T23:16:47.967Z,5.37
2023-02-03T23:19:21.555Z,5.40
2023-02-03T23:21:55.264Z,6.07
2023-02-03T23:24:30.550Z,6.13
2023-02-03T23:27:04.451Z,4.97
2023-02-03T23:29:38.891Z,4.73
2023-02-03T23:32:12.583Z,5.93
2023-02-03T23:35:03.905Z,4.83
2023-02-03T23:37:38.264Z,4.63
2023-02-03T23:40:15.893Z,3.93
2023-02-03T23:42:49.553Z,4.40
2023-02-03T23:45:23.154Z,3.90
2023-02-03T23:47:56.657Z,4.03
2023-02-03T23:50:33.915Z,4.83
2023-02-03T23:53:19.988Z,5.50
2023-02-03T23:55:54.846Z,5.37
2023-02-03T23:58:28.780Z,4.33
